sensor_id;sensor_type;location;lat;lon;timestamp;temperature;humidity
10433;DHT22;5263;48.680;9.004;2022-07-12T00:01:42;14.00;99.90
10433;DHT22;5263;48.680;9.004;2022-07-12T00:04:08;14.10;99.90
10433;DHT22;5263;48.680;9.004;2022-07-12T00:06:34;14.10;99.90
10433;DHT22;5263;48.680;9.004;2022-07-12T00:08:59;14.10;99.90
10433;DHT22;5263;48.680;9.004;2022-07-12T00:11:25;14.10;99.90
10433;DHT22;5263;48.680;9.004;2022-07-12T00:13:51;13.80;99.90
10433;DHT22;5263;48.680;9.004;2022-07-12T00:16:16;13.60;99.90
10433;DHT22;5263;48.680;9.004;2022-07-12T00:18:42;13.80;99.90
10433;DHT22;5263;48.680;9.004;2022-07-12T00:21:07;13.70;99.90
10433;DHT22;5263;48.680;9.004;2022-07-12T00:23:34;13.40;99.90
10433;DHT22;5263;48.680;9.004;2022-07-12T00:26:00;13.60;99.90
10433;DHT22;5263;48.680;9.004;2022-07-12T00:28:33;13.60;99.90
10433;DHT22;5263;48.680;9.004;2022-07-12T00:30:59;13.60;99.90
10433;DHT22;5263;48.680;9.004;2022-07-12T00:33:25;13.50;99.90
10433;DHT22;5263;48.680;9.004;2022-07-12T00:35:51;13.60;99.90
10433;DHT22;5263;48.680;9.004;2022-07-12T00:38:16;13.60;99.90
10433;DHT22;5263;48.680;9.004;2022-07-12T00:40:42;13.60;99.90
10433;DHT22;5263;48.680;9.004;2022-07-12T00:43:08;13.70;99.90
10433;DHT22;5263;48.680;9.004;2022-07-12T00:45:33;13.80;99.90
10433;DHT22;5263;48.680;9.004;2022-07-12T00:47:59;13.90;99.90
10433;DHT22;5263;48.680;9.004;2022-07-12T00:50:25;13.50;99.90
10433;DHT22;5263;48.680;9.004;2022-07-12T00:52:52;13.50;99.90
10433;DHT22;5263;48.680;9.004;2022-07-12T00:55:19;13.60;99.90
10433;DHT22;5263;48.680;9.004;2022-07-12T00:57:46;13.40;99.90
10433;DHT22;5263;48.680;9.004;2022-07-12T01:00:15;13.40;99.90
10433;DHT22;5263;48.680;9.004;2022-07-12T01:02:42;13.50;99.90
10433;DHT22;5263;48.680;9.004;2022-07-12T01:05:09;13.40;99.90
10433;DHT22;5263;48.680;9.004;2022-07-12T01:07:35;13.50;99.90
10433;DHT22;5263;48.680;9.004;2022-07-12T01:10:02;13.50;99.90
10433;DHT22;5263;48.680;9.004;2022-07-12T01:12:29;13.50;99.90
10433;DHT22;5263;48.680;9.004;2022-07-12T01:14:55;13.50;99.90
10433;DHT22;5263;48.680;9.004;2022-07-12T01:17:23;13.50;99.90
10433;DHT22;5263;48.680;9.004;2022-07-12T01:19:49;13.50;99.90
10433;DHT22;5263;48.680;9.004;2022-07-12T01:22:17;13.30;99.90
10433;DHT22;5263;48.680;9.004;2022-07-12T01:24:44;13.10;99.90
10433;DHT22;5263;48.680;9.004;2022-07-12T01:27:11;12.90;99.90
10433;DHT22;5263;48.680;9.004;2022-07-12T01:29:37;12.90;99.90
10433;DHT22;5263;48.680;9.004;2022-07-12T01:32:03;13.00;99.90
10433;DHT22;5263;48.680;9.004;2022-07-12T01:34:50;13.00;99.90
10433;DHT22;5263;48.680;9.004;2022-07-12T01:37:16;12.70;99.90
10433;DHT22;5263;48.680;9.004;2022-07-12T01:39:44;12.60;99.90
10433;DHT22;5263;48.680;9.004;2022-07-12T01:42:10;12.80;99.90
10433;DHT22;5263;48.680;9.004;2022-07-12T01:44:36;12.90;99.90
10433;DHT22;5263;48.680;9.004;2022-07-12T01:47:02;13.00;99.90
10433;DHT22;5263;48.680;9.004;2022-07-12T01:49:28;13.10;99.90
10433;DHT22;5263;48.680;9.004;2022-07-12T01:51:57;13.10;99.90
10433;DHT22;5263;48.680;9.004;2022-07-12T01:54:24;13.20;99.90
10433;DHT22;5263;48.680;9.004;2022-07-12T01:56:51;13.10;99.90
10433;DHT22;5263;48.680;9.004;2022-07-12T01:59:21;13.20;99.90
10433;DHT22;5263;48.680;9.004;2022-07-12T02:01:47;13.20;99.90
10433;DHT22;5263;48.680;9.004;2022-07-12T02:04:16;12.90;99.90
10433;DHT22;5263;48.680;9.004;2022-07-12T02:06:44;12.90;99.90
10433;DHT22;5263;48.680;9.004;2022-07-12T02:09:10;13.00;99.90
10433;DHT22;5263;48.680;9.004;2022-07-12T02:11:36;13.00;99.90
10433;DHT22;5263;48.680;9.004;2022-07-12T02:14:01;13.00;99.90
10433;DHT22;5263;48.680;9.004;2022-07-12T02:16:27;13.10;99.90
10433;DHT22;5263;48.680;9.004;2022-07-12T02:18:52;13.00;99.90
10433;DHT22;5263;48.680;9.004;2022-07-12T02:21:18;12.90;99.90
10433;DHT22;5263;48.680;9.004;2022-07-12T02:23:44;12.90;99.90
10433;DHT22;5263;48.680;9.004;2022-07-12T02:26:10;12.80;99.90
10433;DHT22;5263;48.680;9.004;2022-07-12T02:28:35;12.50;99.90
10433;DHT22;5263;48.680;9.004;2022-07-12T02:31:01;12.60;99.90
10433;DHT22;5263;48.680;9.004;2022-07-12T02:33:26;12.50;99.90
10433;DHT22;5263;48.680;9.004;2022-07-12T02:35:52;12.40;99.90
10433;DHT22;5263;48.680;9.004;2022-07-12T02:38:18;12.40;99.90
10433;DHT22;5263;48.680;9.004;2022-07-12T02:40:45;12.40;99.90
10433;DHT22;5263;48.680;9.004;2022-07-12T02:45:45;12.60;99.90
10433;DHT22;5263;48.680;9.004;2022-07-12T02:48:11;12.60;99.90
10433;DHT22;5263;48.680;9.004;2022-07-12T02:50:38;12.60;99.90
10433;DHT22;5263;48.680;9.004;2022-07-12T02:53:08;12.70;99.90
10433;DHT22;5263;48.680;9.004;2022-07-12T02:55:34;12.60;99.90
10433;DHT22;5263;48.680;9.004;2022-07-12T02:58:00;12.60;99.90
10433;DHT22;5263;48.680;9.004;2022-07-12T03:00:26;12.60;99.90
10433;DHT22;5263;48.680;9.004;2022-07-12T03:02:52;12.50;99.90
10433;DHT22;5263;48.680;9.004;2022-07-12T03:05:18;12.30;99.90
10433;DHT22;5263;48.680;9.004;2022-07-12T03:07:43;12.40;99.90
10433;DHT22;5263;48.680;9.004;2022-07-12T03:10:09;12.60;99.90
10433;DHT22;5263;48.680;9.004;2022-07-12T03:12:36;12.80;99.90
10433;DHT22;5263;48.680;9.004;2022-07-12T03:15:02;12.80;99.90
10433;DHT22;5263;48.680;9.004;2022-07-12T03:17:28;12.60;99.90
10433;DHT22;5263;48.680;9.004;2022-07-12T03:19:53;12.70;99.90
10433;DHT22;5263;48.680;9.004;2022-07-12T03:22:19;12.80;99.90
10433;DHT22;5263;48.680;9.004;2022-07-12T03:24:45;12.90;99.90
10433;DHT22;5263;48.680;9.004;2022-07-12T03:27:10;12.90;99.90
10433;DHT22;5263;48.680;9.004;2022-07-12T03:29:36;12.90;99.90
10433;DHT22;5263;48.680;9.004;2022-07-12T03:32:03;13.00;99.90
10433;DHT22;5263;48.680;9.004;2022-07-12T03:34:28;13.00;99.90
10433;DHT22;5263;48.680;9.004;2022-07-12T03:36:54;13.00;99.90
10433;DHT22;5263;48.680;9.004;2022-07-12T03:39:20;13.00;99.90
10433;DHT22;5263;48.680;9.004;2022-07-12T03:41:45;13.00;99.90
10433;DHT22;5263;48.680;9.004;2022-07-12T03:44:11;13.10;99.90
10433;DHT22;5263;48.680;9.004;2022-07-12T03:46:37;13.10;99.90
10433;DHT22;5263;48.680;9.004;2022-07-12T03:49:02;13.30;99.90
10433;DHT22;5263;48.680;9.004;2022-07-12T03:51:28;13.20;99.90
10433;DHT22;5263;48.680;9.004;2022-07-12T03:53:53;13.30;99.90
10433;DHT22;5263;48.680;9.004;2022-07-12T03:56:19;13.30;99.90
10433;DHT22;5263;48.680;9.004;2022-07-12T03:59:03;13.20;99.90
10433;DHT22;5263;48.680;9.004;2022-07-12T04:01:29;13.10;99.90
10433;DHT22;5263;48.680;9.004;2022-07-12T04:03:56;13.10;99.90
10433;DHT22;5263;48.680;9.004;2022-07-12T04:06:22;12.90;99.90
10433;DHT22;5263;48.680;9.004;2022-07-12T04:08:47;12.80;99.90
10433;DHT22;5263;48.680;9.004;2022-07-12T04:11:13;12.80;99.90
10433;DHT22;5263;48.680;9.004;2022-07-12T04:13:39;12.90;99.90
10433;DHT22;5263;48.680;9.004;2022-07-12T04:16:04;13.00;99.90
10433;DHT22;5263;48.680;9.004;2022-07-12T04:18:31;12.90;99.90
10433;DHT22;5263;48.680;9.004;2022-07-12T04:20:57;13.00;99.90
10433;DHT22;5263;48.680;9.004;2022-07-12T04:23:22;13.00;99.90
10433;DHT22;5263;48.680;9.004;2022-07-12T04:25:48;13.00;99.90
10433;DHT22;5263;48.680;9.004;2022-07-12T04:28:13;13.00;99.90
10433;DHT22;5263;48.680;9.004;2022-07-12T04:30:39;13.00;99.90
10433;DHT22;5263;48.680;9.004;2022-07-12T04:33:05;13.00;99.90
10433;DHT22;5263;48.680;9.004;2022-07-12T04:35:31;13.10;99.90
10433;DHT22;5263;48.680;9.004;2022-07-12T04:37:57;13.10;99.90
10433;DHT22;5263;48.680;9.004;2022-07-12T04:40:22;13.10;99.90
10433;DHT22;5263;48.680;9.004;2022-07-12T04:42:48;13.20;99.90
10433;DHT22;5263;48.680;9.004;2022-07-12T04:45:13;13.30;99.90
10433;DHT22;5263;48.680;9.004;2022-07-12T04:47:39;13.40;99.90
10433;DHT22;5263;48.680;9.004;2022-07-12T04:50:08;13.30;99.90
10433;DHT22;5263;48.680;9.004;2022-07-12T04:52:34;13.20;99.90
10433;DHT22;5263;48.680;9.004;2022-07-12T04:55:00;13.40;99.90
10433;DHT22;5263;48.680;9.004;2022-07-12T04:57:26;13.50;99.90
10433;DHT22;5263;48.680;9.004;2022-07-12T04:59:51;13.60;99.90
10433;DHT22;5263;48.680;9.004;2022-07-12T05:02:17;13.70;99.90
10433;DHT22;5263;48.680;9.004;2022-07-12T05:04:43;13.70;99.90
10433;DHT22;5263;48.680;9.004;2022-07-12T05:07:09;13.90;99.90
10433;DHT22;5263;48.680;9.004;2022-07-12T05:09:35;13.90;99.90
10433;DHT22;5263;48.680;9.004;2022-07-12T05:12:00;14.10;99.90
10433;DHT22;5263;48.680;9.004;2022-07-12T05:14:26;14.10;99.90
10433;DHT22;5263;48.680;9.004;2022-07-12T05:16:51;14.20;99.90
10433;DHT22;5263;48.680;9.004;2022-07-12T05:19:17;14.30;99.90
10433;DHT22;5263;48.680;9.004;2022-07-12T05:21:44;14.40;99.90
10433;DHT22;5263;48.680;9.004;2022-07-12T05:24:10;14.50;99.90
10433;DHT22;5263;48.680;9.004;2022-07-12T05:26:35;14.70;99.90
10433;DHT22;5263;48.680;9.004;2022-07-12T05:29:01;14.70;99.90
10433;DHT22;5263;48.680;9.004;2022-07-12T05:31:26;14.70;99.90
10433;DHT22;5263;48.680;9.004;2022-07-12T05:33:52;14.70;99.90
10433;DHT22;5263;48.680;9.004;2022-07-12T05:36:18;14.80;99.90
10433;DHT22;5263;48.680;9.004;2022-07-12T05:38:44;15.00;99.90
10433;DHT22;5263;48.680;9.004;2022-07-12T05:41:10;15.10;99.90
10433;DHT22;5263;48.680;9.004;2022-07-12T05:43:35;15.20;99.90
10433;DHT22;5263;48.680;9.004;2022-07-12T05:46:03;15.40;99.90
10433;DHT22;5263;48.680;9.004;2022-07-12T05:48:29;15.60;99.90
10433;DHT22;5263;48.680;9.004;2022-07-12T05:50:55;15.70;99.90
10433;DHT22;5263;48.680;9.004;2022-07-12T05:53:20;15.80;99.90
10433;DHT22;5263;48.680;9.004;2022-07-12T05:55:50;15.90;99.90
10433;DHT22;5263;48.680;9.004;2022-07-12T05:58:16;16.00;99.90
10433;DHT22;5263;48.680;9.004;2022-07-12T06:00:42;16.00;99.90
10433;DHT22;5263;48.680;9.004;2022-07-12T06:03:08;16.00;99.90
10433;DHT22;5263;48.680;9.004;2022-07-12T06:05:34;16.00;99.90
10433;DHT22;5263;48.680;9.004;2022-07-12T06:08:00;16.30;99.90
10433;DHT22;5263;48.680;9.004;2022-07-12T06:10:26;16.40;99.90
10433;DHT22;5263;48.680;9.004;2022-07-12T06:12:51;16.40;99.90
10433;DHT22;5263;48.680;9.004;2022-07-12T06:15:17;16.60;99.90
10433;DHT22;5263;48.680;9.004;2022-07-12T06:17:43;16.80;99.90
10433;DHT22;5263;48.680;9.004;2022-07-12T06:20:09;16.80;99.90
10433;DHT22;5263;48.680;9.004;2022-07-12T06:22:35;17.00;99.90
10433;DHT22;5263;48.680;9.004;2022-07-12T06:25:01;17.20;99.90
10433;DHT22;5263;48.680;9.004;2022-07-12T06:27:26;17.30;99.90
10433;DHT22;5263;48.680;9.004;2022-07-12T06:29:53;17.50;99.90
10433;DHT22;5263;48.680;9.004;2022-07-12T06:32:18;17.60;99.90
10433;DHT22;5263;48.680;9.004;2022-07-12T06:34:44;17.60;99.90
10433;DHT22;5263;48.680;9.004;2022-07-12T06:37:10;17.70;99.90
10433;DHT22;5263;48.680;9.004;2022-07-12T06:39:38;17.70;99.90
10433;DHT22;5263;48.680;9.004;2022-07-12T06:42:04;17.90;99.90
10433;DHT22;5263;48.680;9.004;2022-07-12T06:44:30;18.00;99.90
10433;DHT22;5263;48.680;9.004;2022-07-12T06:46:56;18.20;99.90
10433;DHT22;5263;48.680;9.004;2022-07-12T06:49:22;18.20;99.90
10433;DHT22;5263;48.680;9.004;2022-07-12T06:51:48;18.40;99.90
10433;DHT22;5263;48.680;9.004;2022-07-12T06:54:13;18.60;99.90
10433;DHT22;5263;48.680;9.004;2022-07-12T06:56:39;18.70;99.90
10433;DHT22;5263;48.680;9.004;2022-07-12T06:59:05;18.80;99.90
10433;DHT22;5263;48.680;9.004;2022-07-12T07:01:30;18.80;99.90
10433;DHT22;5263;48.680;9.004;2022-07-12T07:03:56;18.90;99.90
10433;DHT22;5263;48.680;9.004;2022-07-12T07:06:21;19.00;99.90
10433;DHT22;5263;48.680;9.004;2022-07-12T07:08:47;19.20;99.90
10433;DHT22;5263;48.680;9.004;2022-07-12T07:11:13;19.30;99.90
10433;DHT22;5263;48.680;9.004;2022-07-12T07:13:38;19.40;99.90
10433;DHT22;5263;48.680;9.004;2022-07-12T07:16:05;19.40;99.90
10433;DHT22;5263;48.680;9.004;2022-07-12T07:18:31;19.50;99.90
10433;DHT22;5263;48.680;9.004;2022-07-12T07:20:57;19.70;99.90
10433;DHT22;5263;48.680;9.004;2022-07-12T07:23:22;19.80;99.90
10433;DHT22;5263;48.680;9.004;2022-07-12T07:25:48;19.80;99.90
10433;DHT22;5263;48.680;9.004;2022-07-12T07:28:14;19.90;99.90
10433;DHT22;5263;48.680;9.004;2022-07-12T07:30:39;19.60;99.90
10433;DHT22;5263;48.680;9.004;2022-07-12T07:33:24;19.60;99.90
10433;DHT22;5263;48.680;9.004;2022-07-12T07:35:51;19.60;99.90
10433;DHT22;5263;48.680;9.004;2022-07-12T07:38:18;19.80;99.90
10433;DHT22;5263;48.680;9.004;2022-07-12T07:40:44;20.10;99.90
10433;DHT22;5263;48.680;9.004;2022-07-12T07:43:10;20.30;99.90
10433;DHT22;5263;48.680;9.004;2022-07-12T07:45:36;20.40;99.90
10433;DHT22;5263;48.680;9.004;2022-07-12T07:48:02;20.50;99.90
10433;DHT22;5263;48.680;9.004;2022-07-12T07:50:29;20.50;99.90
10433;DHT22;5263;48.680;9.004;2022-07-12T07:52:55;20.70;99.90
10433;DHT22;5263;48.680;9.004;2022-07-12T07:55:21;20.90;99.90
10433;DHT22;5263;48.680;9.004;2022-07-12T07:57:46;21.00;99.90
10433;DHT22;5263;48.680;9.004;2022-07-12T08:00:13;21.00;99.90
10433;DHT22;5263;48.680;9.004;2022-07-12T08:02:40;21.00;99.90
10433;DHT22;5263;48.680;9.004;2022-07-12T08:05:06;21.20;99.90
10433;DHT22;5263;48.680;9.004;2022-07-12T08:07:32;21.20;99.90
10433;DHT22;5263;48.680;9.004;2022-07-12T08:09:58;21.40;99.90
10433;DHT22;5263;48.680;9.004;2022-07-12T08:12:23;21.50;99.90
10433;DHT22;5263;48.680;9.004;2022-07-12T08:14:49;21.80;99.90
10433;DHT22;5263;48.680;9.004;2022-07-12T08:17:14;22.10;99.90
10433;DHT22;5263;48.680;9.004;2022-07-12T08:19:40;22.30;99.90
10433;DHT22;5263;48.680;9.004;2022-07-12T08:22:06;22.50;99.90
10433;DHT22;5263;48.680;9.004;2022-07-12T08:24:32;22.60;99.50
10433;DHT22;5263;48.680;9.004;2022-07-12T08:26:57;22.50;98.70
10433;DHT22;5263;48.680;9.004;2022-07-12T08:29:23;22.30;98.70
10433;DHT22;5263;48.680;9.004;2022-07-12T08:31:48;22.40;99.40
10433;DHT22;5263;48.680;9.004;2022-07-12T08:34:14;22.60;98.30
10433;DHT22;5263;48.680;9.004;2022-07-12T08:36:39;22.60;97.80
10433;DHT22;5263;48.680;9.004;2022-07-12T08:39:05;22.60;97.50
10433;DHT22;5263;48.680;9.004;2022-07-12T08:41:31;22.40;98.10
10433;DHT22;5263;48.680;9.004;2022-07-12T08:43:56;22.30;97.50
10433;DHT22;5263;48.680;9.004;2022-07-12T08:46:22;22.30;98.30
10433;DHT22;5263;48.680;9.004;2022-07-12T08:48:48;22.60;98.10
10433;DHT22;5263;48.680;9.004;2022-07-12T08:51:18;23.00;97.60
10433;DHT22;5263;48.680;9.004;2022-07-12T08:53:44;23.30;97.30
10433;DHT22;5263;48.680;9.004;2022-07-12T08:56:29;23.40;96.20
10433;DHT22;5263;48.680;9.004;2022-07-12T08:59:15;23.40;96.60
10433;DHT22;5263;48.680;9.004;2022-07-12T09:01:47;23.40;96.20
10433;DHT22;5263;48.680;9.004;2022-07-12T09:04:14;23.30;95.10
10433;DHT22;5263;48.680;9.004;2022-07-12T09:06:40;23.20;94.80
10433;DHT22;5263;48.680;9.004;2022-07-12T09:09:05;23.00;94.60
10433;DHT22;5263;48.680;9.004;2022-07-12T09:11:37;23.10;94.40
10433;DHT22;5263;48.680;9.004;2022-07-12T09:14:04;23.30;95.20
10433;DHT22;5263;48.680;9.004;2022-07-12T09:16:29;23.50;95.30
10433;DHT22;5263;48.680;9.004;2022-07-12T09:19:15;23.50;93.30
10433;DHT22;5263;48.680;9.004;2022-07-12T09:21:52;23.40;93.50
10433;DHT22;5263;48.680;9.004;2022-07-12T09:24:19;23.60;93.40
10433;DHT22;5263;48.680;9.004;2022-07-12T09:26:45;23.80;94.80
10433;DHT22;5263;48.680;9.004;2022-07-12T09:29:12;23.90;92.60
10433;DHT22;5263;48.680;9.004;2022-07-12T09:31:48;23.90;92.50
10433;DHT22;5263;48.680;9.004;2022-07-12T09:34:32;24.00;91.70
10433;DHT22;5263;48.680;9.004;2022-07-12T09:37:17;24.10;91.30
10433;DHT22;5263;48.680;9.004;2022-07-12T09:39:44;24.00;92.80
10433;DHT22;5263;48.680;9.004;2022-07-12T09:42:11;24.00;92.60
10433;DHT22;5263;48.680;9.004;2022-07-12T09:44:41;23.70;90.40
10433;DHT22;5263;48.680;9.004;2022-07-12T09:47:12;23.90;92.20
10433;DHT22;5263;48.680;9.004;2022-07-12T09:49:39;24.20;92.30
10433;DHT22;5263;48.680;9.004;2022-07-12T09:52:05;24.20;92.00
10433;DHT22;5263;48.680;9.004;2022-07-12T09:54:39;24.40;91.20
10433;DHT22;5263;48.680;9.004;2022-07-12T09:57:12;24.40;91.20
10433;DHT22;5263;48.680;9.004;2022-07-12T09:59:39;24.60;91.10
10433;DHT22;5263;48.680;9.004;2022-07-12T10:02:05;24.40;90.70
10433;DHT22;5263;48.680;9.004;2022-07-12T10:04:33;24.20;90.90
10433;DHT22;5263;48.680;9.004;2022-07-12T10:06:59;24.40;91.60
10433;DHT22;5263;48.680;9.004;2022-07-12T10:09:25;24.50;90.10
10433;DHT22;5263;48.680;9.004;2022-07-12T10:11:53;24.70;86.90
10433;DHT22;5263;48.680;9.004;2022-07-12T10:14:20;25.00;88.30
10433;DHT22;5263;48.680;9.004;2022-07-12T10:16:50;25.30;89.00
10433;DHT22;5263;48.680;9.004;2022-07-12T10:19:31;25.50;87.00
10433;DHT22;5263;48.680;9.004;2022-07-12T10:22:02;25.80;88.90
10433;DHT22;5263;48.680;9.004;2022-07-12T10:26:58;25.90;82.50
10433;DHT22;5263;48.680;9.004;2022-07-12T10:29:23;25.90;83.10
10433;DHT22;5263;48.680;9.004;2022-07-12T10:31:51;26.00;82.70
10433;DHT22;5263;48.680;9.004;2022-07-12T10:34:21;26.20;80.00
10433;DHT22;5263;48.680;9.004;2022-07-12T10:39:23;29.00;73.00
10433;DHT22;5263;48.680;9.004;2022-07-12T10:44:38;33.70;55.50
10433;DHT22;5263;48.680;9.004;2022-07-12T10:47:05;35.10;46.80
10433;DHT22;5263;48.680;9.004;2022-07-12T10:49:33;35.10;42.50
10433;DHT22;5263;48.680;9.004;2022-07-12T10:54:46;37.50;40.60
10433;DHT22;5263;48.680;9.004;2022-07-12T10:57:16;37.40;37.30
10433;DHT22;5263;48.680;9.004;2022-07-12T10:59:46;38.50;37.70
10433;DHT22;5263;48.680;9.004;2022-07-12T11:02:14;39.10;35.70
10433;DHT22;5263;48.680;9.004;2022-07-12T11:04:47;39.90;34.50
10433;DHT22;5263;48.680;9.004;2022-07-12T11:07:19;38.80;33.30
10433;DHT22;5263;48.680;9.004;2022-07-12T11:09:44;39.20;33.80
10433;DHT22;5263;48.680;9.004;2022-07-12T11:12:10;39.30;33.80
10433;DHT22;5263;48.680;9.004;2022-07-12T11:14:39;39.80;33.60
10433;DHT22;5263;48.680;9.004;2022-07-12T11:17:05;39.10;32.90
10433;DHT22;5263;48.680;9.004;2022-07-12T11:19:31;39.40;33.70
10433;DHT22;5263;48.680;9.004;2022-07-12T11:21:57;39.60;31.90
10433;DHT22;5263;48.680;9.004;2022-07-12T11:24:32;39.20;31.60
10433;DHT22;5263;48.680;9.004;2022-07-12T11:26:58;38.40;33.10
10433;DHT22;5263;48.680;9.004;2022-07-12T11:29:26;39.20;33.50
10433;DHT22;5263;48.680;9.004;2022-07-12T11:32:04;40.50;31.70
10433;DHT22;5263;48.680;9.004;2022-07-12T11:34:33;40.70;31.60
10433;DHT22;5263;48.680;9.004;2022-07-12T11:37:00;40.20;31.60
10433;DHT22;5263;48.680;9.004;2022-07-12T11:39:37;39.90;31.30
10433;DHT22;5263;48.680;9.004;2022-07-12T11:42:04;39.20;32.50
10433;DHT22;5263;48.680;9.004;2022-07-12T11:44:50;40.00;30.70
10433;DHT22;5263;48.680;9.004;2022-07-12T11:47:20;41.10;30.10
10433;DHT22;5263;48.680;9.004;2022-07-12T11:49:51;42.20;29.60
10433;DHT22;5263;48.680;9.004;2022-07-12T11:52:22;42.50;28.90
10433;DHT22;5263;48.680;9.004;2022-07-12T11:54:49;43.10;28.40
10433;DHT22;5263;48.680;9.004;2022-07-12T11:57:19;43.20;28.60
10433;DHT22;5263;48.680;9.004;2022-07-12T11:59:45;42.60;27.50
10433;DHT22;5263;48.680;9.004;2022-07-12T12:02:13;42.50;28.40
10433;DHT22;5263;48.680;9.004;2022-07-12T12:04:48;42.30;28.00
10433;DHT22;5263;48.680;9.004;2022-07-12T12:07:15;42.40;28.10
10433;DHT22;5263;48.680;9.004;2022-07-12T12:12:36;43.10;28.90
10433;DHT22;5263;48.680;9.004;2022-07-12T12:15:11;43.00;27.70
10433;DHT22;5263;48.680;9.004;2022-07-12T12:20:17;42.00;28.50
10433;DHT22;5263;48.680;9.004;2022-07-12T12:22:45;42.10;28.20
10433;DHT22;5263;48.680;9.004;2022-07-12T12:25:11;41.40;28.30
10433;DHT22;5263;48.680;9.004;2022-07-12T12:27:59;42.10;28.20
10433;DHT22;5263;48.680;9.004;2022-07-12T12:30:30;42.80;27.70
10433;DHT22;5263;48.680;9.004;2022-07-12T12:32:57;42.70;28.10
10433;DHT22;5263;48.680;9.004;2022-07-12T12:35:31;42.50;27.30
10433;DHT22;5263;48.680;9.004;2022-07-12T12:38:01;42.20;27.20
10433;DHT22;5263;48.680;9.004;2022-07-12T12:40:29;43.00;28.10
10433;DHT22;5263;48.680;9.004;2022-07-12T12:45:33;42.40;28.40
10433;DHT22;5263;48.680;9.004;2022-07-12T12:48:04;43.10;27.20
10433;DHT22;5263;48.680;9.004;2022-07-12T12:50:44;43.80;27.60
10433;DHT22;5263;48.680;9.004;2022-07-12T12:53:21;44.10;26.70
10433;DHT22;5263;48.680;9.004;2022-07-12T12:55:50;42.90;26.00
10433;DHT22;5263;48.680;9.004;2022-07-12T12:58:17;42.70;26.30
10433;DHT22;5263;48.680;9.004;2022-07-12T13:00:46;42.80;26.60
10433;DHT22;5263;48.680;9.004;2022-07-12T13:03:13;42.90;26.70
10433;DHT22;5263;48.680;9.004;2022-07-12T13:05:39;43.60;26.60
10433;DHT22;5263;48.680;9.004;2022-07-12T13:08:07;43.80;26.00
10433;DHT22;5263;48.680;9.004;2022-07-12T13:10:33;44.00;26.00
10433;DHT22;5263;48.680;9.004;2022-07-12T13:13:00;44.60;25.80
10433;DHT22;5263;48.680;9.004;2022-07-12T13:15:27;43.20;27.10
10433;DHT22;5263;48.680;9.004;2022-07-12T13:17:53;43.00;26.20
10433;DHT22;5263;48.680;9.004;2022-07-12T13:20:19;43.30;27.00
10433;DHT22;5263;48.680;9.004;2022-07-12T13:22:45;44.00;25.70
10433;DHT22;5263;48.680;9.004;2022-07-12T13:25:13;43.80;24.30
10433;DHT22;5263;48.680;9.004;2022-07-12T13:27:40;44.60;24.50
10433;DHT22;5263;48.680;9.004;2022-07-12T13:30:08;44.40;24.70
10433;DHT22;5263;48.680;9.004;2022-07-12T13:32:35;44.10;24.80
10433;DHT22;5263;48.680;9.004;2022-07-12T13:35:02;43.40;25.70
10433;DHT22;5263;48.680;9.004;2022-07-12T13:37:28;42.50;26.40
10433;DHT22;5263;48.680;9.004;2022-07-12T13:39:54;42.50;26.50
10433;DHT22;5263;48.680;9.004;2022-07-12T13:42:38;42.70;26.60
10433;DHT22;5263;48.680;9.004;2022-07-12T13:45:06;44.00;26.20
10433;DHT22;5263;48.680;9.004;2022-07-12T13:47:32;44.10;25.90
10433;DHT22;5263;48.680;9.004;2022-07-12T13:49:58;44.00;25.30
10433;DHT22;5263;48.680;9.004;2022-07-12T13:52:23;43.50;25.60
10433;DHT22;5263;48.680;9.004;2022-07-12T13:54:49;41.70;26.70
10433;DHT22;5263;48.680;9.004;2022-07-12T13:57:15;41.80;26.90
10433;DHT22;5263;48.680;9.004;2022-07-12T13:59:40;41.30;27.80
10433;DHT22;5263;48.680;9.004;2022-07-12T14:02:06;40.50;28.40
10433;DHT22;5263;48.680;9.004;2022-07-12T14:04:32;42.20;27.50
10433;DHT22;5263;48.680;9.004;2022-07-12T14:06:58;42.60;26.80
10433;DHT22;5263;48.680;9.004;2022-07-12T14:09:24;42.40;26.40
10433;DHT22;5263;48.680;9.004;2022-07-12T14:11:50;42.30;26.40
10433;DHT22;5263;48.680;9.004;2022-07-12T14:14:15;42.10;27.20
10433;DHT22;5263;48.680;9.004;2022-07-12T14:16:42;42.60;26.90
10433;DHT22;5263;48.680;9.004;2022-07-12T14:19:07;41.40;26.40
10433;DHT22;5263;48.680;9.004;2022-07-12T14:21:33;40.60;27.80
10433;DHT22;5263;48.680;9.004;2022-07-12T14:23:59;40.60;28.70
10433;DHT22;5263;48.680;9.004;2022-07-12T14:26:26;40.50;28.80
10433;DHT22;5263;48.680;9.004;2022-07-12T14:28:52;41.70;27.90
10433;DHT22;5263;48.680;9.004;2022-07-12T14:31:18;42.20;27.30
10433;DHT22;5263;48.680;9.004;2022-07-12T14:33:43;42.20;27.60
10433;DHT22;5263;48.680;9.004;2022-07-12T14:36:09;42.20;27.30
10433;DHT22;5263;48.680;9.004;2022-07-12T14:38:35;41.60;27.40
10433;DHT22;5263;48.680;9.004;2022-07-12T14:41:01;41.40;27.40
10433;DHT22;5263;48.680;9.004;2022-07-12T14:43:26;41.60;27.20
10433;DHT22;5263;48.680;9.004;2022-07-12T14:45:52;40.90;27.10
10433;DHT22;5263;48.680;9.004;2022-07-12T14:48:18;40.40;27.80
10433;DHT22;5263;48.680;9.004;2022-07-12T14:50:43;39.90;28.70
10433;DHT22;5263;48.680;9.004;2022-07-12T14:53:09;40.60;27.70
10433;DHT22;5263;48.680;9.004;2022-07-12T14:55:35;40.60;27.50
10433;DHT22;5263;48.680;9.004;2022-07-12T14:58:00;41.10;27.40
10433;DHT22;5263;48.680;9.004;2022-07-12T15:00:28;41.50;27.30
10433;DHT22;5263;48.680;9.004;2022-07-12T15:02:53;41.00;27.30
10433;DHT22;5263;48.680;9.004;2022-07-12T15:05:25;40.80;27.70
10433;DHT22;5263;48.680;9.004;2022-07-12T15:07:51;39.60;27.60
10433;DHT22;5263;48.680;9.004;2022-07-12T15:10:17;38.10;29.10
10433;DHT22;5263;48.680;9.004;2022-07-12T15:12:42;36.90;31.20
10433;DHT22;5263;48.680;9.004;2022-07-12T15:15:08;35.20;32.60
10433;DHT22;5263;48.680;9.004;2022-07-12T15:17:34;33.90;34.80
10433;DHT22;5263;48.680;9.004;2022-07-12T15:20:00;32.90;36.90
10433;DHT22;5263;48.680;9.004;2022-07-12T15:22:25;31.80;38.70
10433;DHT22;5263;48.680;9.004;2022-07-12T15:24:51;31.20;38.60
10433;DHT22;5263;48.680;9.004;2022-07-12T15:27:17;30.60;40.10
10433;DHT22;5263;48.680;9.004;2022-07-12T15:29:42;30.10;40.50
10433;DHT22;5263;48.680;9.004;2022-07-12T15:32:10;29.40;42.60
10433;DHT22;5263;48.680;9.004;2022-07-12T15:34:39;29.20;44.70
10433;DHT22;5263;48.680;9.004;2022-07-12T15:37:05;28.90;44.00
10433;DHT22;5263;48.680;9.004;2022-07-12T15:39:30;28.70;45.40
10433;DHT22;5263;48.680;9.004;2022-07-12T15:41:56;28.60;45.70
10433;DHT22;5263;48.680;9.004;2022-07-12T15:44:22;28.60;45.10
10433;DHT22;5263;48.680;9.004;2022-07-12T15:46:48;28.20;46.00
10433;DHT22;5263;48.680;9.004;2022-07-12T15:49:14;28.30;47.30
10433;DHT22;5263;48.680;9.004;2022-07-12T15:51:40;28.10;46.50
10433;DHT22;5263;48.680;9.004;2022-07-12T15:54:24;27.90;47.30
10433;DHT22;5263;48.680;9.004;2022-07-12T15:56:50;28.00;47.90
10433;DHT22;5263;48.680;9.004;2022-07-12T15:59:16;28.00;49.20
10433;DHT22;5263;48.680;9.004;2022-07-12T16:01:42;27.80;48.20
10433;DHT22;5263;48.680;9.004;2022-07-12T16:04:08;27.90;48.20
10433;DHT22;5263;48.680;9.004;2022-07-12T16:06:34;27.80;48.10